createdAt,value
2022-08-20T00:02:16.693Z,9.15
2022-08-20T00:04:45.455Z,9.07
2022-08-20T00:07:14.408Z,9.48
2022-08-20T00:09:44.353Z,9.65
2022-08-20T00:12:17.215Z,8.90
2022-08-20T00:14:46.867Z,9.38
2022-08-20T00:17:16.572Z,8.27
2022-08-20T00:19:44.822Z,9.25
2022-08-20T00:22:13.699Z,8.43
2022-08-20T00:24:42.069Z,9.52
2022-08-20T00:27:10.465Z,9.43
2022-08-20T00:29:38.916Z,9.05
2022-08-20T00:32:08.758Z,8.48
2022-08-20T00:34:37.136Z,9.82
2022-08-20T00:37:05.720Z,9.45
2022-08-20T00:39:34.109Z,9.00
2022-08-20T00:42:03.450Z,9.13
2022-08-20T00:44:31.884Z,8.50
2022-08-20T00:47:00.445Z,8.68
2022-08-20T00:49:32.919Z,8.43
2022-08-20T00:52:06.482Z,8.45
2022-08-20T00:54:40.078Z,8.75
2022-08-20T00:57:12.841Z,8.25
2022-08-20T00:59:43.367Z,8.20
2022-08-20T01:02:16.268Z,8.40
2022-08-20T01:04:48.946Z,8.48
2022-08-20T01:07:20.412Z,7.55
2022-08-20T01:09:58.909Z,8.57
2022-08-20T01:12:30.054Z,7.47
2022-08-20T01:15:02.959Z,7.90
2022-08-20T01:17:36.403Z,8.48
2022-08-20T01:20:11.650Z,7.53
2022-08-20T01:23:04.571Z,7.80
2022-08-20T01:25:44.733Z,7.75
2022-08-20T01:28:15.134Z,8.00
2022-08-20T01:30:44.129Z,7.75
2022-08-20T01:33:13.790Z,8.00
2022-08-20T01:35:44.669Z,8.63
2022-08-20T01:38:14.254Z,8.38
2022-08-20T01:41:28.239Z,8.15
2022-08-20T01:43:58.816Z,8.70
2022-08-20T01:46:32.904Z,7.85
2022-08-20T01:49:13.599Z,9.48
2022-08-20T01:51:43.793Z,8.80
2022-08-20T01:54:13.686Z,8.88
2022-08-20T01:56:59.432Z,8.63
2022-08-20T01:59:27.837Z,8.80
2022-08-20T02:01:58.523Z,9.82
2022-08-20T02:04:27.688Z,9.98
2022-08-20T02:06:59.405Z,10.10
2022-08-20T02:09:30.216Z,9.65
2022-08-20T02:12:01.033Z,9.07
2022-08-20T02:14:30.769Z,9.98
2022-08-20T02:16:59.895Z,9.48
2022-08-20T02:19:35.480Z,9.25
2022-08-20T02:22:10.529Z,8.63
2022-08-20T02:24:38.754Z,8.48
2022-08-20T02:27:08.382Z,8.95
2022-08-20T02:29:36.762Z,9.30
2022-08-20T02:32:24.375Z,8.95
2022-08-20T02:34:54.875Z,9.15
2022-08-20T02:37:23.340Z,10.30
2022-08-20T02:39:51.624Z,10.00
2022-08-20T02:42:21.284Z,9.60
2022-08-20T02:44:49.513Z,9.52
2022-08-20T02:47:18.181Z,10.05
2022-08-20T02:49:46.569Z,9.98
2022-08-20T02:52:14.801Z,9.25
2022-08-20T02:54:43.109Z,9.27
2022-08-20T02:57:14.187Z,9.60
2022-08-20T02:59:45.210Z,10.23
2022-08-20T03:02:14.028Z,10.05
2022-08-20T03:04:42.829Z,9.10
2022-08-20T03:07:13.014Z,9.10
2022-08-20T03:09:42.321Z,10.10
2022-08-20T03:12:11.041Z,9.63
2022-08-20T03:14:39.467Z,9.23
2022-08-20T03:17:09.548Z,10.00
2022-08-20T03:19:38.198Z,11.18
2022-08-20T03:22:07.100Z,11.77
2022-08-20T03:24:35.394Z,11.90
2022-08-20T03:27:03.662Z,11.98
2022-08-20T03:29:32.134Z,13.38
2022-08-20T03:32:03.843Z,11.35
2022-08-20T03:34:35.973Z,12.70
2022-08-20T03:37:04.291Z,11.75
2022-08-20T03:39:32.822Z,11.73
2022-08-20T03:42:01.165Z,11.20
2022-08-20T03:44:29.379Z,11.70
2022-08-20T03:46:58.011Z,10.50
2022-08-20T03:49:26.721Z,10.73
2022-08-20T03:51:58.040Z,11.32
2022-08-20T03:54:31.978Z,12.43
2022-08-20T03:57:01.428Z,11.75
2022-08-20T03:59:29.908Z,12.07
2022-08-20T04:01:58.179Z,11.95
2022-08-20T04:04:26.551Z,12.27
2022-08-20T04:06:56.494Z,12.15
2022-08-20T04:09:24.726Z,13.95
2022-08-20T04:12:00.202Z,13.02
2022-08-20T04:14:29.186Z,13.07
2022-08-20T04:16:57.805Z,12.70
2022-08-20T04:19:29.179Z,14.80
2022-08-20T04:22:01.070Z,14.07
2022-08-20T04:24:32.209Z,13.50
2022-08-20T04:27:02.778Z,12.93
2022-08-20T04:29:34.882Z,13.57
2022-08-20T04:32:06.133Z,14.65
2022-08-20T04:34:36.392Z,14.65
2022-08-20T04:37:17.248Z,15.90
2022-08-20T04:40:06.104Z,14.60
2022-08-20T04:42:36.722Z,14.23
2022-08-20T04:45:07.701Z,14.60
2022-08-20T04:47:36.496Z,13.82
2022-08-20T04:50:05.940Z,13.77
2022-08-20T04:52:36.006Z,13.63
2022-08-20T04:55:05.691Z,14.10
2022-08-20T04:57:36.665Z,13.57
2022-08-20T05:00:10.041Z,14.80
2022-08-20T05:02:38.953Z,13.82
2022-08-20T05:05:08.429Z,15.60
2022-08-20T05:07:42.944Z,14.07
2022-08-20T05:10:14.840Z,14.93
2022-08-20T05:12:56.811Z,14.68
2022-08-20T05:15:26.594Z,13.20
2022-08-20T05:18:00.595Z,12.73
2022-08-20T05:20:32.119Z,14.02
2022-08-20T05:23:03.513Z,13.80
2022-08-20T05:25:32.678Z,12.80
2022-08-20T05:28:05.572Z,13.63
2022-08-20T05:30:34.484Z,13.95
2022-08-20T05:33:06.195Z,13.23
2022-08-20T05:35:38.599Z,13.40
2022-08-20T05:38:13.666Z,14.90
2022-08-20T05:40:43.727Z,13.68
2022-08-20T05:43:12.393Z,13.30
2022-08-20T05:45:43.843Z,13.68
2022-08-20T05:48:16.533Z,14.50
2022-08-20T05:50:49.328Z,15.13
2022-08-20T05:53:20.193Z,13.45
2022-08-20T05:55:49.499Z,14.07
2022-08-20T05:58:22.404Z,13.80
2022-08-20T06:00:52.223Z,12.57
2022-08-20T06:03:38.606Z,13.93
2022-08-20T06:06:18.405Z,13.18
2022-08-20T06:08:58.224Z,12.00
2022-08-20T06:11:26.750Z,13.13
2022-08-20T06:13:55.025Z,12.70
2022-08-20T06:16:23.301Z,14.45
2022-08-20T06:18:58.123Z,13.50
2022-08-20T06:21:27.347Z,14.93
2022-08-20T06:23:59.146Z,14.45
2022-08-20T06:26:31.584Z,14.85
2022-08-20T06:29:00.317Z,14.48
2022-08-20T06:31:29.105Z,13.48
2022-08-20T06:33:58.132Z,15.35
2022-08-20T06:36:27.447Z,12.82
2022-08-20T06:38:58.526Z,13.35
2022-08-20T06:41:36.152Z,13.18
2022-08-20T06:44:06.659Z,12.68
2022-08-20T06:46:36.136Z,12.07
2022-08-20T06:49:05.357Z,13.32
2022-08-20T06:51:34.174Z,14.48
2022-08-20T06:54:06.789Z,14.43
2022-08-20T06:56:35.569Z,13.82
2022-08-20T06:59:03.845Z,13.25
2022-08-20T07:01:32.975Z,13.45
2022-08-20T07:04:01.347Z,11.73
2022-08-20T07:06:29.839Z,14.20
2022-08-20T07:08:58.376Z,15.57
2022-08-20T07:11:28.962Z,15.90
2022-08-20T07:13:58.703Z,15.93
2022-08-20T07:16:27.829Z,15.75
2022-08-20T07:18:56.273Z,16.75
2022-08-20T07:21:24.642Z,15.43
2022-08-20T07:23:53.251Z,15.45
2022-08-20T07:26:21.909Z,15.63
2022-08-20T07:28:51.573Z,16.27
2022-08-20T07:31:37.464Z,16.83
2022-08-20T07:34:06.127Z,16.40
2022-08-20T07:36:35.445Z,16.75
2022-08-20T07:39:05.821Z,15.85
2022-08-20T07:41:35.206Z,15.80
2022-08-20T07:44:05.797Z,16.75
2022-08-20T07:46:34.342Z,15.68
2022-08-20T07:49:09.820Z,15.60
2022-08-20T07:51:38.501Z,15.95
2022-08-20T07:54:07.061Z,16.95
2022-08-20T07:56:35.457Z,16.23
2022-08-20T07:59:06.268Z,15.98
2022-08-20T08:01:35.181Z,15.75
2022-08-20T08:04:04.509Z,15.38
2022-08-20T08:06:33.062Z,16.10
2022-08-20T08:09:06.043Z,16.25
2022-08-20T08:11:38.590Z,16.83
2022-08-20T08:14:09.792Z,16.52
2022-08-20T08:16:39.358Z,15.68
2022-08-20T08:19:11.921Z,15.70
2022-08-20T08:21:41.713Z,14.07
2022-08-20T08:24:12.734Z,15.02
2022-08-20T08:26:43.180Z,15.18
2022-08-20T08:29:13.565Z,14.65
2022-08-20T08:31:42.264Z,14.25
2022-08-20T08:34:10.673Z,14.05
2022-08-20T08:36:39.295Z,14.77
2022-08-20T08:39:07.856Z,13.88
2022-08-20T08:41:40.805Z,14.45
2022-08-20T08:44:13.151Z,13.80
2022-08-20T08:46:44.448Z,14.18
2022-08-20T08:49:15.877Z,12.18
2022-08-20T08:51:50.167Z,13.35
2022-08-20T08:54:22.904Z,13.02
2022-08-20T08:56:52.472Z,12.63
2022-08-20T08:59:23.771Z,13.50
2022-08-20T09:01:57.601Z,11.75
2022-08-20T09:04:32.195Z,13.70
2022-08-20T09:07:04.412Z,13.38
2022-08-20T09:09:36.896Z,13.32
2022-08-20T09:12:09.717Z,12.85
2022-08-20T09:14:39.904Z,11.50
2022-08-20T09:17:09.260Z,11.82
2022-08-20T09:19:37.569Z,12.00
2022-08-20T09:22:10.717Z,10.75
2022-08-20T09:24:39.467Z,10.55
2022-08-20T09:27:11.423Z,9.52
2022-08-20T09:29:41.679Z,10.23
2022-08-20T09:32:13.876Z,10.00
2022-08-20T09:34:51.808Z,9.25
2022-08-20T09:37:20.904Z,9.55
2022-08-20T09:39:49.671Z,9.15
2022-08-20T09:42:21.114Z,9.75
2022-08-20T09:44:51.043Z,8.98
2022-08-20T09:47:19.541Z,9.60
2022-08-20T09:49:48.405Z,8.80
2022-08-20T09:52:24.202Z,8.57
2022-08-20T09:54:54.855Z,7.82
2022-08-20T09:57:23.842Z,8.52
2022-08-20T09:59:57.961Z,7.93
2022-08-20T10:02:26.648Z,8.10
2022-08-20T10:04:55.423Z,7.38
2022-08-20T10:07:25.886Z,7.38
2022-08-20T10:09:54.407Z,7.57
2022-08-20T10:12:22.983Z,7.47
2022-08-20T10:14:51.294Z,7.43
2022-08-20T10:17:20.904Z,7.80
2022-08-20T10:19:49.769Z,7.18
2022-08-20T10:22:17.959Z,8.02
2022-08-20T10:24:46.214Z,8.77
2022-08-20T10:27:14.534Z,8.98
2022-08-20T10:29:46.697Z,9.13
2022-08-20T10:32:17.242Z,8.20
2022-08-20T10:34:47.772Z,7.78
2022-08-20T10:37:19.309Z,8.00
2022-08-20T10:39:49.250Z,7.03
2022-08-20T10:42:17.921Z,7.80
2022-08-20T10:44:47.066Z,6.78
2022-08-20T10:47:21.285Z,7.18
2022-08-20T10:49:53.848Z,6.68
2022-08-20T10:52:23.648Z,7.43
2022-08-20T10:54:53.276Z,7.28
2022-08-20T10:57:24.522Z,6.38
2022-08-20T10:59:55.777Z,6.38
2022-08-20T11:02:24.893Z,6.53
2022-08-20T11:04:55.176Z,6.30
2022-08-20T11:07:50.678Z,5.53
2022-08-20T11:10:20.063Z,5.72
2022-08-20T11:12:48.773Z,7.38
2022-08-20T11:15:17.258Z,6.50
2022-08-20T11:17:46.670Z,5.60
2022-08-20T11:20:19.719Z,5.88
2022-08-20T11:22:48.675Z,5.28
2022-08-20T11:25:17.171Z,5.22
2022-08-20T11:27:49.152Z,4.78
2022-08-20T11:30:22.357Z,5.28
2022-08-20T11:32:50.668Z,4.93
2022-08-20T11:38:10.138Z,4.80
2022-08-20T11:40:38.701Z,4.45
2022-08-20T11:43:15.997Z,4.50
2022-08-20T11:45:47.265Z,4.60
2022-08-20T11:48:15.601Z,4.18
2022-08-20T11:50:45.349Z,4.63
2022-08-20T11:53:14.857Z,4.28
2022-08-20T11:55:43.921Z,4.40
2022-08-20T11:58:12.406Z,4.68
2022-08-20T12:00:40.898Z,5.20
2022-08-20T12:03:11.813Z,5.35
2022-08-20T12:05:41.683Z,5.40
2022-08-20T12:08:27.704Z,5.00
2022-08-20T12:10:59.245Z,4.82
2022-08-20T12:13:30.564Z,4.93
2022-08-20T12:16:00.186Z,4.85
2022-08-20T12:18:29.011Z,4.75
2022-08-20T12:20:57.355Z,5.40
2022-08-20T12:23:27.158Z,5.00
2022-08-20T12:25:55.491Z,5.20
2022-08-20T12:28:27.524Z,5.15
2022-08-20T12:30:55.836Z,5.50
2022-08-20T12:33:24.176Z,5.40
2022-08-20T12:35:53.170Z,5.60
2022-08-20T12:38:21.606Z,5.00
2022-08-20T12:40:51.310Z,5.00
2022-08-20T12:43:24.646Z,5.32
2022-08-20T12:45:53.465Z,4.88
2022-08-20T12:48:21.889Z,4.53
2022-08-20T12:50:52.713Z,4.65
2022-08-20T12:53:21.242Z,4.65
2022-08-20T12:55:51.048Z,4.68
2022-08-20T12:58:19.665Z,4.28
2022-08-20T13:00:50.897Z,4.57
2022-08-20T13:03:22.077Z,4.85
2022-08-20T13:05:51.841Z,4.75
2022-08-20T13:08:23.511Z,4.47
2022-08-20T13:10:53.342Z,4.80
2022-08-20T13:13:21.606Z,4.65
2022-08-20T13:15:51.494Z,5.03
2022-08-20T13:18:20.192Z,5.53
2022-08-20T13:20:48.698Z,5.97
2022-08-20T13:23:17.533Z,5.45
2022-08-20T13:25:45.897Z,5.20
2022-08-20T13:28:15.639Z,5.70
2022-08-20T13:30:43.869Z,5.30
2022-08-20T13:33:12.209Z,5.93
2022-08-20T13:35:40.469Z,5.35
2022-08-20T13:38:08.828Z,5.30
2022-08-20T13:40:37.405Z,5.65
2022-08-20T13:43:07.335Z,5.95
2022-08-20T13:45:38.605Z,4.68
2022-08-20T13:48:14.706Z,5.60
2022-08-20T13:50:47.180Z,5.38
2022-08-20T13:53:17.206Z,5.43
2022-08-20T13:55:47.493Z,5.55
2022-08-20T13:58:17.363Z,5.43
2022-08-20T14:00:47.949Z,5.35
2022-08-20T14:03:19.791Z,5.85
2022-08-20T14:05:48.493Z,5.53
2022-08-20T14:08:19.543Z,5.38
2022-08-20T14:10:51.572Z,5.40
2022-08-20T14:13:23.394Z,6.03
2022-08-20T14:15:53.543Z,5.85
2022-08-20T14:18:22.195Z,5.68
2022-08-20T14:20:50.515Z,5.75
2022-08-20T14:23:18.951Z,5.10
2022-08-20T14:25:50.137Z,5.25
2022-08-20T14:28:21.288Z,5.10
2022-08-20T14:30:52.946Z,5.93
2022-08-20T14:33:24.933Z,5.13
2022-08-20T14:35:53.963Z,5.40
2022-08-20T14:38:22.922Z,5.55
2022-08-20T14:40:51.457Z,5.38
2022-08-20T14:43:20.169Z,5.63
2022-08-20T14:45:48.474Z,5.50
2022-08-20T14:48:16.756Z,5.00
2022-08-20T14:50:46.476Z,5.20
2022-08-20T14:53:14.692Z,5.60
2022-08-20T14:55:42.976Z,5.38
2022-08-20T14:58:13.611Z,5.18
2022-08-20T15:00:44.093Z,4.70
2022-08-20T15:03:13.370Z,5.18
2022-08-20T15:05:41.798Z,5.10
2022-08-20T15:08:11.418Z,5.28
2022-08-20T15:10:40.819Z,5.50
2022-08-20T15:13:09.511Z,6.57
2022-08-20T15:15:39.401Z,6.65
2022-08-20T15:18:08.674Z,6.25
2022-08-20T15:20:39.059Z,6.72
2022-08-20T15:23:08.089Z,6.82
2022-08-20T15:25:38.660Z,6.88
2022-08-20T15:28:09.544Z,7.05
2022-08-20T15:30:39.071Z,6.43
2022-08-20T15:33:08.265Z,6.45
2022-08-20T15:35:37.102Z,6.82
2022-08-20T15:38:07.863Z,6.35
2022-08-20T15:40:39.348Z,6.18
2022-08-20T15:43:08.718Z,6.55
2022-08-20T15:45:37.506Z,6.55
2022-08-20T15:48:15.042Z,6.32
2022-08-20T15:51:03.921Z,6.60
2022-08-20T15:53:38.640Z,6.63
2022-08-20T15:56:23.175Z,6.00
2022-08-20T15:59:06.801Z,6.18
2022-08-20T16:01:45.851Z,5.97
2022-08-20T16:04:57.890Z,5.88
2022-08-20T16:07:34.021Z,6.30
2022-08-20T16:10:15.136Z,6.07
2022-08-20T16:12:51.249Z,6.25
2022-08-20T16:15:24.292Z,6.22
2022-08-20T16:18:06.671Z,7.07
2022-08-20T16:20:41.597Z,6.60
2022-08-20T16:23:12.574Z,6.55
2022-08-20T16:25:59.208Z,6.28
2022-08-20T16:28:37.069Z,6.30
2022-08-20T16:31:11.987Z,6.60
2022-08-20T16:33:57.681Z,7.30
2022-08-20T16:36:38.138Z,6.32
2022-08-20T16:39:11.828Z,6.35
2022-08-20T16:41:42.965Z,6.63
2022-08-20T16:44:22.341Z,6.30
2022-08-20T16:46:55.879Z,6.57
2022-08-20T16:49:26.822Z,6.50
2022-08-20T16:51:55.662Z,7.47
2022-08-20T16:54:29.690Z,8.13
2022-08-20T16:57:04.365Z,7.75
2022-08-20T16:59:35.563Z,7.88
2022-08-20T17:02:10.414Z,7.80
2022-08-20T17:04:50.525Z,7.70
2022-08-20T17:07:33.379Z,7.22
2022-08-20T17:10:15.529Z,7.13
2022-08-20T17:12:43.884Z,7.82
2022-08-20T17:15:25.592Z,7.03
2022-08-20T17:17:56.014Z,7.30
2022-08-20T17:20:29.044Z,7.25
2022-08-20T17:23:14.742Z,6.97
2022-08-20T17:25:43.108Z,8.10
2022-08-20T17:28:16.856Z,8.23
2022-08-20T17:30:48.389Z,9.13
2022-08-20T17:33:30.458Z,8.35
2022-08-20T17:36:02.618Z,7.90
2022-08-20T17:38:41.652Z,6.90
2022-08-20T17:41:17.381Z,6.97
2022-08-20T17:43:47.140Z,7.10
2022-08-20T17:46:18.763Z,7.18
2022-08-20T17:48:49.579Z,6.20
2022-08-20T17:51:21.762Z,6.45
2022-08-20T17:53:54.353Z,6.25
2022-08-20T17:56:27.173Z,5.78
2022-08-20T17:59:03.487Z,5.43
2022-08-20T18:01:36.204Z,5.65
2022-08-20T18:04:05.122Z,5.07
2022-08-20T18:06:44.567Z,5.32
2022-08-20T18:09:20.469Z,4.82
2022-08-20T18:11:55.537Z,4.72
2022-08-20T18:14:40.510Z,3.88
2022-08-20T18:17:50.330Z,4.22
2022-08-20T18:20:49.672Z,3.72
2022-08-20T18:23:22.614Z,3.13
2022-08-20T18:25:55.779Z,3.35
2022-08-20T18:28:36.391Z,3.10
2022-08-20T18:31:10.307Z,2.58
2022-08-20T18:33:43.505Z,2.58
2022-08-20T18:36:24.893Z,3.03
2022-08-20T18:39:03.445Z,2.80
2022-08-20T18:41:35.507Z,2.42
2022-08-20T18:44:08.981Z,2.78
2022-08-20T18:46:38.674Z,2.58
2022-08-20T18:49:09.936Z,2.40
2022-08-20T18:51:43.569Z,2.58
2022-08-20T18:54:25.024Z,2.55
2022-08-20T18:57:05.875Z,2.50
2022-08-20T18:59:41.657Z,2.60
2022-08-20T19:02:23.741Z,2.67
2022-08-20T19:04:59.812Z,2.70
2022-08-20T19:07:43.155Z,2.58
2022-08-20T19:10:43.743Z,2.67
2022-08-20T19:16:02.201Z,3.50
2022-08-20T19:18:38.739Z,3.20
2022-08-20T19:21:15.642Z,105.72
2022-08-20T19:23:54.368Z,104.63
2022-08-20T19:26:26.187Z,52.03
2022-08-20T19:28:59.020Z,82.90
2022-08-20T19:31:30.534Z,33.45
2022-08-20T19:34:19.900Z,19.75
2022-08-20T19:36:58.971Z,10.60
2022-08-20T19:39:32.437Z,7.90
2022-08-20T19:42:15.062Z,6.20
2022-08-20T19:44:51.469Z,4.75
2022-08-20T19:47:35.057Z,4.70
2022-08-20T19:50:20.752Z,14.25
2022-08-20T19:52:58.803Z,3.92
2022-08-20T19:55:32.969Z,3.53
2022-08-20T19:58:06.737Z,3.63
2022-08-20T20:00:41.963Z,3.92
2022-08-20T20:03:11.572Z,4.60
2022-08-20T20:05:51.262Z,5.38
2022-08-20T20:08:22.534Z,4.65
2022-08-20T20:10:57.942Z,4.90
2022-08-20T20:13:36.012Z,4.50
2022-08-20T20:16:08.679Z,4.15
2022-08-20T20:18:41.460Z,3.60
2022-08-20T20:21:15.560Z,4.32
2022-08-20T20:23:55.659Z,4.50
2022-08-20T20:26:25.143Z,3.92
2022-08-20T20:29:02.221Z,4.38
2022-08-20T20:31:34.464Z,4.65
2022-08-20T20:34:13.220Z,4.00
2022-08-20T20:36:43.895Z,4.20
2022-08-20T20:39:29.932Z,3.90
2022-08-20T20:42:09.256Z,3.92
2022-08-20T20:44:40.405Z,4.38
2022-08-20T20:47:20.207Z,4.00
2022-08-20T20:49:53.356Z,4.28
2022-08-20T20:52:25.458Z,4.25
2022-08-20T20:55:10.164Z,4.07
2022-08-20T20:57:39.553Z,3.88
2022-08-20T21:00:13.272Z,4.10
2022-08-20T21:02:43.434Z,3.90
2022-08-20T21:05:14.573Z,3.80
2022-08-20T21:07:50.599Z,4.20
2022-08-20T21:10:24.245Z,4.30
2022-08-20T21:12:53.516Z,4.20
2022-08-20T21:15:24.349Z,4.10
2022-08-20T21:17:53.781Z,4.20
2022-08-20T21:20:23.200Z,3.80
2022-08-20T21:22:51.684Z,3.80
2022-08-20T21:25:21.757Z,4.15
2022-08-20T21:27:52.260Z,4.20
2022-08-20T21:30:22.753Z,3.83
2022-08-20T21:32:51.615Z,3.90
2022-08-20T21:35:20.486Z,4.05
2022-08-20T21:37:49.073Z,3.90
2022-08-20T21:40:21.439Z,4.00
2022-08-20T21:42:52.274Z,4.35
2022-08-20T21:45:22.458Z,4.20
2022-08-20T21:47:50.908Z,3.92
2022-08-20T21:50:21.391Z,3.83
2022-08-20T21:53:11.299Z,3.92
2022-08-20T21:55:40.396Z,3.75
2022-08-20T21:58:10.531Z,3.65
2022-08-20T22:00:55.005Z,4.40
2022-08-20T22:03:26.605Z,3.80
2022-08-20T22:05:55.978Z,4.22
2022-08-20T22:08:28.126Z,4.60
2022-08-20T22:10:58.732Z,4.00
2022-08-20T22:13:32.827Z,3.90
2022-08-20T22:16:02.730Z,4.00
2022-08-20T22:18:31.284Z,3.90
2022-08-20T22:21:00.320Z,3.97
2022-08-20T22:23:29.879Z,4.50
2022-08-20T22:25:58.264Z,4.38
2022-08-20T22:28:27.971Z,4.20
2022-08-20T22:30:56.264Z,4.43
2022-08-20T22:33:26.024Z,4.15
2022-08-20T22:35:59.498Z,4.60
2022-08-20T22:38:29.409Z,4.50
2022-08-20T22:40:58.296Z,4.72
2022-08-20T22:43:29.908Z,4.45
2022-08-20T22:46:02.147Z,4.60
2022-08-20T22:48:31.207Z,4.65
2022-08-20T22:51:00.255Z,4.22
2022-08-20T22:53:29.589Z,4.22
2022-08-20T22:55:58.961Z,4.15
2022-08-20T22:58:30.457Z,4.32
2022-08-20T23:01:02.279Z,4.38
2022-08-20T23:03:40.049Z,4.38
2022-08-20T23:06:10.919Z,4.32
2022-08-20T23:08:40.457Z,4.18
2022-08-20T23:11:09.359Z,4.05
2022-08-20T23:13:39.632Z,4.25
2022-08-20T23:16:09.104Z,3.90
2022-08-20T23:18:38.082Z,4.07
2022-08-20T23:21:07.047Z,4.35
2022-08-20T23:23:35.448Z,4.30
2022-08-20T23:26:04.185Z,3.92
2022-08-20T23:28:32.535Z,4.35
2022-08-20T23:31:02.200Z,3.92
2022-08-20T23:33:31.539Z,4.07
2022-08-20T23:36:03.905Z,4.47
2022-08-20T23:38:32.243Z,4.32
2022-08-20T23:41:00.529Z,4.50
2022-08-20T23:43:29.056Z,4.70
2022-08-20T23:46:03.502Z,4.60
2022-08-20T23:48:31.933Z,4.45
2022-08-20T23:51:00.228Z,4.18
2022-08-20T23:53:28.674Z,3.70
2022-08-20T23:55:57.276Z,3.80
2022-08-20T23:58:25.605Z,3.72
